Time;durP1;ratioP1;P1;durP2;ratioP2;P2;SDS_P1;SDS_P2;PMS_P1;PMS_P2;Temp;Humidity;BMP_temperature;BMP_pressure;BME280_temperature;BME280_humidity;BME280_pressure;Samples;Min_cycle;Max_cycle;Signal;HPM_P1;HPM_P2
2023/01/04 12:58:28;;;;;;;71.75;22.75;;;;;;;;;;6108375;23;20022;-86
2023/01/04 13:00:55;;;;;;;52.72;23.65;;;;;;;;;;6136363;23;20523;-94
2023/01/04 13:03:27;;;;;;;91.97;29.20;;;;;;;;;;6134305;23;20020;-89
2023/01/04 13:05:55;;;;;;;44.70;22.67;;;;;;;;;;6133640;23;20012;-88
2023/01/04 13:08:21;;;;;;;61.50;23.27;;;;;;;;;;6135141;23;20009;-90
2023/01/04 13:10:48;;;;;;;38.60;21.80;;;;;;;;;;6137027;23;20008;-87
2023/01/04 13:16:36;;;;;;;55.87;21.83;;;;;;;;;;6158434;23;20040;-89
2023/01/04 13:19:03;;;;;;;38.33;22.45;;;;;;;;;;6138232;23;20308;-88
2023/01/04 13:21:32;;;;;;;30.60;19.45;;;;;;;;;;6132615;23;20100;-88
2023/01/04 13:24:00;;;;;;;57.58;24.13;;;;;;;;;;6134048;23;20024;-88
2023/01/04 13:26:44;;;;;;;49.08;22.45;;;;;;;;;;6133806;23;20013;-85
2023/01/04 13:29:23;;;;;;;50.00;23.58;;;;;;;;;;6144133;23;20013;-89
2023/01/04 13:35:08;;;;;;;32.57;20.83;;;;;;;;;;6158930;23;20017;-89
2023/01/04 13:37:40;;;;;;;31.95;21.42;;;;;;;;;;6132993;23;20690;-88
2023/01/04 13:40:18;;;;;;;78.45;26.48;;;;;;;;;;6136345;23;20025;-89
2023/01/04 13:43:02;;;;;;;57.35;25.92;;;;;;;;;;6135921;23;20468;-95
2023/01/04 13:48:08;;;;;;;33.28;21.25;;;;;;;;;;6233956;22;21009;-90
2023/01/04 13:50:35;;;;;;;62.67;25.75;;;;;;;;;;6222485;23;20004;-89
2023/01/04 13:53:21;;;;;;;71.00;28.05;;;;;;;;;;6226169;23;20124;-88
2023/01/04 13:55:52;;;;;;;37.08;23.63;;;;;;;;;;6232387;23;20055;-89
2023/01/04 13:58:19;;;;;;;37.85;23.88;;;;;;;;;;6233619;23;20374;-90
2023/01/04 14:01:06;;;;;;;35.50;22.60;;;;;;;;;;6223316;23;20012;-89
2023/01/04 14:03:49;;;;;;;28.40;20.30;;;;;;;;;;6206620;23;20008;-92
2023/01/04 14:06:27;;;;;;;34.28;21.17;;;;;;;;;;6222667;23;20008;-91
2023/01/04 14:09:13;;;;;;;33.20;21.30;;;;;;;;;;6222764;23;20463;-89
2023/01/04 14:14:24;;;;;;;41.65;25.08;;;;;;;;;;6249860;23;20018;-90
2023/01/04 14:16:51;;;;;;;41.88;25.88;;;;;;;;;;6221864;23;20008;-90
2023/01/04 14:19:35;;;;;;;31.00;21.35;;;;;;;;;;6198893;23;20130;-88
2023/01/04 14:22:02;;;;;;;38.40;22.98;;;;;;;;;;6222239;23;20065;-87
2023/01/04 14:24:32;;;;;;;33.10;21.27;;;;;;;;;;6221674;23;20016;-88
2023/01/04 14:26:58;;;;;;;34.25;22.30;;;;;;;;;;6222020;23;20333;-89
2023/01/04 14:29:30;;;;;;;31.20;21.35;;;;;;;;;;6222332;23;20015;-89
2023/01/04 14:31:56;;;;;;;32.50;22.42;;;;;;;;;;6221702;23;20441;-88
2023/01/04 14:34:22;;;;;;;34.75;22.05;;;;;;;;;;6222799;23;20005;-90
2023/01/04 14:36:48;;;;;;;33.47;21.83;;;;;;;;;;6224870;23;20008;-91
2023/01/04 14:39:19;;;;;;;42.92;24.10;;;;;;;;;;6223567;23;20329;-88
2023/01/04 14:41:48;;;;;;;35.60;22.30;;;;;;;;;;6249781;23;20011;-87
2023/01/04 14:44:16;;;;;;;47.17;29.27;;;;;;;;;;6223007;23;20040;-87
2023/01/04 14:46:45;;;;;;;50.88;31.98;;;;;;;;;;6222139;23;20004;-88
2023/01/04 14:49:12;;;;;;;39.60;25.23;;;;;;;;;;6224420;23;20020;-85
2023/01/04 14:51:54;;;;;;;51.08;26.02;;;;;;;;;;6223237;23;20006;-89
2023/01/04 14:54:20;;;;;;;50.25;26.38;;;;;;;;;;6221646;23;20432;-87
2023/01/04 14:56:47;;;;;;;40.10;24.38;;;;;;;;;;6222442;23;20008;-87
2023/01/04 14:59:13;;;;;;;60.92;27.60;;;;;;;;;;6220863;23;20015;-85
2023/01/04 15:01:39;;;;;;;77.82;30.77;;;;;;;;;;6221277;23;20314;-86
2023/01/04 15:04:07;;;;;;;82.72;27.45;;;;;;;;;;6222065;23;20012;-87
2023/01/04 15:06:34;;;;;;;112.32;41.70;;;;;;;;;;6222154;23;20055;-86
2023/01/04 15:09:00;;;;;;;45.97;25.70;;;;;;;;;;6222057;23;20004;-85
2023/01/04 15:11:36;;;;;;;91.72;34.40;;;;;;;;;;6222049;23;20015;-85
2023/01/04 15:14:02;;;;;;;37.72;24.92;;;;;;;;;;6225501;23;20459;-85
2023/01/04 15:16:28;;;;;;;66.20;27.55;;;;;;;;;;6223130;23;20036;-86
2023/01/04 15:18:54;;;;;;;105.03;30.63;;;;;;;;;;6223798;23;20000;-86
2023/01/04 15:21:20;;;;;;;74.32;31.83;;;;;;;;;;6226824;23;20442;-86
2023/01/04 15:23:47;;;;;;;33.35;23.58;;;;;;;;;;6226636;23;20043;-86
2023/01/04 15:26:16;;;;;;;34.25;24.65;;;;;;;;;;6227410;23;20000;-88
2023/01/04 15:28:42;;;;;;;30.08;21.83;;;;;;;;;;6225562;23;20008;-86
2023/01/04 15:31:10;;;;;;;29.17;21.92;;;;;;;;;;6228658;23;20000;-86
2023/01/04 15:33:36;;;;;;;51.00;24.73;;;;;;;;;;6228166;23;20000;-88
2023/01/04 15:36:04;;;;;;;36.88;22.02;;;;;;;;;;6238613;23;20008;-95
2023/01/04 15:38:34;;;;;;;70.32;27.33;;;;;;;;;;6227159;23;20011;-88
2023/01/04 15:41:04;;;;;;;302.00;43.65;;;;;;;;;;6222568;23;20004;-89
2023/01/04 15:43:45;;;;;;;31.65;23.50;;;;;;;;;;6223659;23;20019;-87
2023/01/04 15:46:35;;;;;;;72.05;26.55;;;;;;;;;;6251042;23;20020;-89
2023/01/04 15:52:18;;;;;;;31.52;23.42;;;;;;;;;;6249866;23;20031;-89
2023/01/04 15:54:48;;;;;;;137.20;31.55;;;;;;;;;;6255442;23;20004;-86
2023/01/04 15:57:31;;;;;;;32.15;22.73;;;;;;;;;;6262510;23;20052;-88
2023/01/04 16:06:21;;;;;;;37.83;25.40;;;;;;;;;;6162908;23;20320;-95
2023/01/04 16:09:00;;;;;;;54.08;28.48;;;;;;;;;;6159519;23;20010;-91
2023/01/04 16:11:35;;;;;;;42.03;26.70;;;;;;;;;;6169862;23;20029;-95
2023/01/04 16:14:02;;;;;;;38.70;25.08;;;;;;;;;;6225430;23;20045;-92
2023/01/04 16:16:45;;;;;;;44.15;27.55;;;;;;;;;;6200082;23;20059;-86
2023/01/04 16:19:11;;;;;;;95.47;38.95;;;;;;;;;;6233900;23;20005;-87
2023/01/04 16:21:43;;;;;;;48.55;28.98;;;;;;;;;;6194306;23;20008;-93
2023/01/04 16:24:11;;;;;;;38.42;24.92;;;;;;;;;;6220962;23;20058;-87
2023/01/04 16:26:40;;;;;;;48.97;28.00;;;;;;;;;;6168363;23;20426;-87
2023/01/04 16:29:06;;;;;;;40.10;26.13;;;;;;;;;;6196198;23;20430;-87
2023/01/04 16:31:34;;;;;;;34.00;23.67;;;;;;;;;;6200324;23;20004;-87
2023/01/04 16:34:04;;;;;;;150.60;55.05;;;;;;;;;;6208291;23;20055;-88
2023/01/04 16:36:34;;;;;;;64.40;38.35;;;;;;;;;;6205135;23;20008;-88
2023/01/04 16:39:01;;;;;;;105.88;45.10;;;;;;;;;;6196513;23;20013;-89
2023/01/04 16:41:36;;;;;;;83.22;36.75;;;;;;;;;;6196491;23;20074;-88
2023/01/04 16:44:12;;;;;;;83.15;37.03;;;;;;;;;;6224850;23;20397;-94
2023/01/04 16:46:39;;;;;;;61.63;34.28;;;;;;;;;;6197493;23;20005;-89
2023/01/04 16:49:23;;;;;;;111.43;46.00;;;;;;;;;;6191153;23;20056;-92
2023/01/04 16:51:57;;;;;;;76.55;38.10;;;;;;;;;;6198723;23;19989;-88
2023/01/04 16:54:24;;;;;;;47.92;30.77;;;;;;;;;;6195899;23;20005;-87
2023/01/04 16:59:45;;;;;;;48.28;31.20;;;;;;;;;;6181180;23;20011;-88
2023/01/04 17:02:17;;;;;;;49.03;30.35;;;;;;;;;;6194265;23;20001;-88
2023/01/04 17:04:54;;;;;;;43.00;27.95;;;;;;;;;;6195019;23;20020;-94
2023/01/04 17:07:20;;;;;;;56.35;32.33;;;;;;;;;;6192684;23;20004;-90
2023/01/04 17:12:44;;;;;;;47.80;30.25;;;;;;;;;;6227615;22;20385;-89
2023/01/04 17:18:16;;;;;;;55.33;34.35;;;;;;;;;;6222728;23;20067;-90
2023/01/04 17:20:42;;;;;;;44.88;30.08;;;;;;;;;;6196325;23;20004;-89
2023/01/04 17:23:08;;;;;;;42.97;29.55;;;;;;;;;;6203560;23;20004;-88
2023/01/04 17:50:56;;;;;;;44.70;30.20;;;;;;;;;;6231115;23;20052;-88
2023/01/04 17:55:51;;;;;;;46.05;29.73;;;;;;;;;;6255733;22;20480;-88
2023/01/04 17:58:28;;;;;;;45.50;29.70;;;;;;;;;;6261903;23;20429;-91
2023/01/04 18:00:54;;;;;;;51.80;31.55;;;;;;;;;;6214993;22;20336;-88
2023/01/04 18:03:23;;;;;;;43.22;29.48;;;;;;;;;;6253078;23;20017;-88
2023/01/04 18:05:54;;;;;;;47.00;31.58;;;;;;;;;;6227135;23;20096;-89
2023/01/04 18:08:20;;;;;;;69.47;37.10;;;;;;;;;;6222976;23;20009;-89
2023/01/04 18:10:47;;;;;;;38.28;25.02;;;;;;;;;;6228570;23;20046;-89
2023/01/04 18:13:19;;;;;;;55.90;30.08;;;;;;;;;;6226646;23;20028;-90
2023/01/04 18:15:45;;;;;;;74.35;37.03;;;;;;;;;;6229617;23;20024;-88
2023/01/04 18:18:14;;;;;;;42.45;26.58;;;;;;;;;;6229879;23;20019;-90
2023/01/04 18:20:40;;;;;;;39.83;26.65;;;;;;;;;;6225642;23;20009;-89
2023/01/04 18:23:06;;;;;;;46.95;30.23;;;;;;;;;;6227905;23;20019;-89
2023/01/04 18:25:33;;;;;;;50.38;32.03;;;;;;;;;;6232645;23;20023;-88
2023/01/04 18:27:59;;;;;;;44.45;29.27;;;;;;;;;;6224843;23;20004;-89
2023/01/04 18:30:31;;;;;;;40.25;25.95;;;;;;;;;;6225633;23;20013;-89
2023/01/04 18:32:57;;;;;;;62.05;34.60;;;;;;;;;;6226937;23;20004;-91
2023/01/04 18:35:26;;;;;;;44.17;29.65;;;;;;;;;;6227107;23;20088;-91
2023/01/04 18:37:55;;;;;;;52.85;31.73;;;;;;;;;;6226974;23;20082;-89
2023/01/04 18:40:24;;;;;;;74.80;41.42;;;;;;;;;;6226679;23;20015;-92
2023/01/04 18:42:51;;;;;;;59.03;38.72;;;;;;;;;;6204064;23;20025;-90
2023/01/04 18:48:20;;;;;;;38.43;28.47;;;;;;;;;;6199425;23;20028;-90
2023/01/04 18:50:49;;;;;;;36.42;26.58;;;;;;;;;;6171054;23;20596;-91
2023/01/04 18:53:18;;;;;;;43.28;28.80;;;;;;;;;;6194137;23;20001;-90
2023/01/04 18:55:49;;;;;;;50.03;34.40;;;;;;;;;;6199212;23;20098;-89
2023/01/04 18:58:27;;;;;;;49.45;33.42;;;;;;;;;;6231670;23;20018;-90
2023/01/04 19:01:00;;;;;;;55.78;36.58;;;;;;;;;;6227573;23;20012;-90
2023/01/04 19:03:35;;;;;;;51.28;32.30;;;;;;;;;;6224670;23;20016;-89
2023/01/04 19:06:36;;;;;;;42.30;29.02;;;;;;;;;;6226262;23;20011;-90
2023/01/04 19:09:17;;;;;;;49.90;32.05;;;;;;;;;;6104418;23;20006;-89
2023/01/04 19:11:47;;;;;;;33.38;24.00;;;;;;;;;;6224377;23;20004;-90
2023/01/04 19:14:24;;;;;;;37.00;26.90;;;;;;;;;;6242064;22;20017;-91
2023/01/04 19:16:51;;;;;;;48.90;31.58;;;;;;;;;;6211635;23;20000;-92
2023/01/04 19:19:20;;;;;;;32.63;23.70;;;;;;;;;;6182776;23;20068;-91
2023/01/04 19:21:53;;;;;;;37.30;27.25;;;;;;;;;;6200526;23;20004;-90
2023/01/04 19:24:19;;;;;;;53.95;40.72;;;;;;;;;;6203238;23;20460;-89
2023/01/04 19:26:45;;;;;;;49.75;34.60;;;;;;;;;;6199091;23;20012;-90
2023/01/04 19:29:27;;;;;;;50.78;36.05;;;;;;;;;;6227439;22;20012;-92
2023/01/04 19:31:53;;;;;;;42.13;29.73;;;;;;;;;;6200951;23;20007;-91
2023/01/04 19:34:38;;;;;;;52.33;36.78;;;;;;;;;;6201517;23;20426;-89
2023/01/04 19:37:05;;;;;;;66.18;46.70;;;;;;;;;;6202515;23;20019;-89
2023/01/04 19:39:40;;;;;;;77.95;48.35;;;;;;;;;;6203019;23;20009;-91
2023/01/04 19:42:06;;;;;;;70.20;43.08;;;;;;;;;;6204589;23;19985;-90
2023/01/04 19:44:35;;;;;;;60.17;40.28;;;;;;;;;;6236727;22;20024;-90
2023/01/04 19:47:07;;;;;;;46.85;30.70;;;;;;;;;;6207362;23;20008;-89
2023/01/04 19:49:51;;;;;;;41.72;27.15;;;;;;;;;;6212991;23;20017;-88
2023/01/04 19:52:33;;;;;;;40.25;27.00;;;;;;;;;;6197945;23;20009;-89
2023/01/04 19:55:08;;;;;;;37.97;25.60;;;;;;;;;;6202354;23;20008;-91
2023/01/04 19:57:38;;;;;;;40.65;26.73;;;;;;;;;;6244493;22;20019;-90
2023/01/04 20:00:16;;;;;;;38.10;23.88;;;;;;;;;;6295323;22;20067;-90
2023/01/04 20:02:45;;;;;;;40.38;27.52;;;;;;;;;;6291767;22;20379;-90
2023/01/04 20:05:11;;;;;;;29.85;20.90;;;;;;;;;;6295331;22;20003;-89
2023/01/04 20:11:01;;;;;;;35.67;24.05;;;;;;;;;;6261465;23;20070;-90
2023/01/04 20:13:32;;;;;;;31.42;22.25;;;;;;;;;;6254886;23;20000;-91
2023/01/04 20:16:13;;;;;;;32.92;23.02;;;;;;;;;;6230757;23;20163;-90
2023/01/04 20:18:43;;;;;;;32.60;23.13;;;;;;;;;;6253312;23;20008;-91
2023/01/04 20:21:13;;;;;;;28.95;20.30;;;;;;;;;;6229502;23;20008;-89
2023/01/04 20:23:45;;;;;;;31.70;21.90;;;;;;;;;;6234161;23;20004;-88
2023/01/04 20:26:20;;;;;;;32.53;22.77;;;;;;;;;;6221694;23;20083;-88
2023/01/04 20:28:50;;;;;;;28.85;19.75;;;;;;;;;;6223805;23;20004;-89
2023/01/04 20:31:25;;;;;;;30.00;21.95;;;;;;;;;;6221461;23;20016;-92
2023/01/04 20:33:55;;;;;;;27.98;18.83;;;;;;;;;;6229753;23;20003;-89
2023/01/04 20:36:25;;;;;;;33.00;21.67;;;;;;;;;;6230315;23;20008;-92
2023/01/04 20:39:05;;;;;;;30.92;20.80;;;;;;;;;;6221967;23;20032;-91
2023/01/04 20:41:32;;;;;;;32.67;24.60;;;;;;;;;;6220606;23;20031;-90
2023/01/04 20:43:58;;;;;;;30.08;23.13;;;;;;;;;;6220642;23;20019;-91
2023/01/04 20:46:26;;;;;;;34.03;25.17;;;;;;;;;;6220561;23;20000;-90
2023/01/04 20:48:58;;;;;;;26.88;20.75;;;;;;;;;;6221217;23;20024;-89
2023/01/04 20:51:26;;;;;;;22.60;17.40;;;;;;;;;;6222243;23;20000;-89
2023/01/04 20:53:53;;;;;;;25.02;18.08;;;;;;;;;;6223009;23;20091;-90
2023/01/04 20:56:23;;;;;;;22.10;16.00;;;;;;;;;;6221877;23;20429;-90
2023/01/04 20:58:49;;;;;;;22.70;16.92;;;;;;;;;;6221971;23;20095;-88
2023/01/04 21:01:17;;;;;;;22.60;16.00;;;;;;;;;;6221180;23;20032;-90
2023/01/04 21:03:43;;;;;;;24.13;16.80;;;;;;;;;;6222023;23;20016;-89
2023/01/04 21:06:11;;;;;;;21.92;16.02;;;;;;;;;;6226598;23;20004;-90
2023/01/04 21:08:44;;;;;;;24.80;16.65;;;;;;;;;;6232850;22;20016;-87
2023/01/04 21:13:58;;;;;;;21.17;15.90;;;;;;;;;;6263087;22;20011;-89
2023/01/04 21:16:40;;;;;;;28.15;17.90;;;;;;;;;;6235243;23;20019;-89
2023/01/04 21:19:07;;;;;;;21.05;15.20;;;;;;;;;;6231271;23;20012;-88
2023/01/04 21:21:33;;;;;;;25.05;17.55;;;;;;;;;;6225357;23;20306;-90
2023/01/04 21:24:00;;;;;;;21.90;16.30;;;;;;;;;;6220521;23;20024;-89
2023/01/04 21:26:30;;;;;;;21.38;15.70;;;;;;;;;;6205616;23;20028;-89
2023/01/04 21:28:59;;;;;;;22.02;15.85;;;;;;;;;;6192289;23;20025;-89
2023/01/04 21:34:30;;;;;;;15.88;11.40;;;;;;;;;;6253106;22;20055;-91
2023/01/04 21:37:04;;;;;;;15.27;11.50;;;;;;;;;;6221764;23;20032;-89
2023/01/04 21:39:36;;;;;;;14.23;11.10;;;;;;;;;;6222906;23;20012;-91
2023/01/04 21:42:02;;;;;;;15.57;10.57;;;;;;;;;;6223141;23;20035;-91
2023/01/04 21:44:31;;;;;;;16.10;11.98;;;;;;;;;;6221775;23;20521;-92
2023/01/04 21:47:01;;;;;;;16.08;11.05;;;;;;;;;;6249077;23;20015;-93
2023/01/04 21:49:27;;;;;;;15.23;11.02;;;;;;;;;;6222461;23;20027;-92
2023/01/04 21:51:53;;;;;;;17.95;11.70;;;;;;;;;;6223746;23;20005;-94
2023/01/04 21:54:20;;;;;;;15.88;11.32;;;;;;;;;;6230006;23;19984;-93
2023/01/04 21:56:46;;;;;;;13.30;10.20;;;;;;;;;;6247392;23;20009;-93
2023/01/04 21:59:12;;;;;;;12.93;9.23;;;;;;;;;;6232106;23;20014;-93
2023/01/04 22:01:42;;;;;;;12.75;9.02;;;;;;;;;;6229095;23;20008;-92
2023/01/04 22:04:08;;;;;;;13.18;9.15;;;;;;;;;;6224769;23;20020;-93
2023/01/04 22:06:42;;;;;;;11.98;8.68;;;;;;;;;;6223621;23;20005;-91
2023/01/04 22:09:11;;;;;;;11.95;8.43;;;;;;;;;;6222049;23;20012;-93
2023/01/04 22:11:39;;;;;;;11.15;8.52;;;;;;;;;;6221841;23;20451;-92
2023/01/04 22:14:09;;;;;;;10.55;7.88;;;;;;;;;;6221359;23;20168;-92
2023/01/04 22:16:50;;;;;;;10.57;7.35;;;;;;;;;;6222555;23;20040;-92
2023/01/04 22:19:16;;;;;;;12.18;7.53;;;;;;;;;;6222321;23;20000;-91
2023/01/04 22:21:43;;;;;;;10.45;8.18;;;;;;;;;;6224194;23;20008;-90
2023/01/04 22:24:18;;;;;;;12.05;8.88;;;;;;;;;;6222417;23;20035;-92
2023/01/04 22:26:46;;;;;;;14.20;9.50;;;;;;;;;;6225044;23;20009;-91
2023/01/04 22:29:14;;;;;;;12.98;8.27;;;;;;;;;;6221410;23;20008;-93
2023/01/04 22:31:47;;;;;;;11.57;7.97;;;;;;;;;;6249389;23;20417;-90
2023/01/04 22:34:20;;;;;;;14.23;7.70;;;;;;;;;;6205190;23;20012;-91
2023/01/04 22:36:51;;;;;;;10.52;7.90;;;;;;;;;;6193262;23;20426;-93
2023/01/04 22:39:24;;;;;;;13.60;11.38;;;;;;;;;;6192110;23;20092;-92
2023/01/04 22:42:02;;;;;;;15.45;13.43;;;;;;;;;;6195098;23;20012;-93
2023/01/04 22:44:32;;;;;;;19.05;17.02;;;;;;;;;;6157326;23;20321;-91
2023/01/04 22:47:04;;;;;;;20.25;18.15;;;;;;;;;;6133025;23;20064;-93
2023/01/04 22:49:39;;;;;;;22.42;20.08;;;;;;;;;;6133327;23;20016;-90
2023/01/04 22:52:08;;;;;;;20.70;18.40;;;;;;;;;;6133478;23;20001;-91
2023/01/04 22:54:38;;;;;;;23.08;20.63;;;;;;;;;;6134898;23;20016;-90
2023/01/04 22:57:06;;;;;;;24.30;20.48;;;;;;;;;;6126132;23;20005;-93
2023/01/04 22:59:38;;;;;;;24.73;20.35;;;;;;;;;;6148457;23;20005;-91
2023/01/04 23:02:06;;;;;;;22.15;18.17;;;;;;;;;;6202289;22;20028;-91
2023/01/04 23:04:35;;;;;;;22.13;18.00;;;;;;;;;;6230027;23;20430;-93
2023/01/04 23:07:01;;;;;;;22.02;18.00;;;;;;;;;;6225931;23;20000;-93
2023/01/04 23:09:28;;;;;;;24.92;17.90;;;;;;;;;;6224419;23;20314;-94
2023/01/04 23:12:01;;;;;;;23.35;18.08;;;;;;;;;;6223004;23;20004;-93
2023/01/04 23:14:33;;;;;;;28.55;21.30;;;;;;;;;;6226260;23;20004;-92
2023/01/04 23:16:59;;;;;;;40.33;27.33;;;;;;;;;;6226361;23;20005;-92
2023/01/04 23:19:33;;;;;;;36.72;24.83;;;;;;;;;;6224124;23;20083;-91
2023/01/04 23:22:05;;;;;;;43.17;30.35;;;;;;;;;;6220478;23;20032;-91
2023/01/04 23:24:33;;;;;;;36.30;27.17;;;;;;;;;;6221697;23;20016;-91
2023/01/04 23:27:05;;;;;;;29.83;24.23;;;;;;;;;;6220979;23;20467;-91
2023/01/04 23:29:34;;;;;;;31.67;27.57;;;;;;;;;;6247964;23;20004;-92
2023/01/04 23:32:04;;;;;;;31.60;28.20;;;;;;;;;;6221071;23;20001;-93
2023/01/04 23:34:33;;;;;;;27.98;24.00;;;;;;;;;;6222147;23;20497;-94
2023/01/04 23:37:06;;;;;;;22.40;20.10;;;;;;;;;;6233290;23;19984;-92
2023/01/04 23:39:41;;;;;;;21.15;18.15;;;;;;;;;;6235448;22;20008;-93
2023/01/04 23:42:10;;;;;;;17.27;15.48;;;;;;;;;;6222272;23;20008;-91
2023/01/04 23:44:36;;;;;;;16.42;14.65;;;;;;;;;;6221021;23;20087;-92
2023/01/04 23:47:07;;;;;;;16.25;14.23;;;;;;;;;;6223093;23;20004;-91
2023/01/04 23:49:48;;;;;;;13.82;11.80;;;;;;;;;;6226649;23;20109;-93
2023/01/04 23:52:14;;;;;;;15.73;12.70;;;;;;;;;;6221856;23;20008;-92
2023/01/04 23:54:49;;;;;;;18.45;15.35;;;;;;;;;;6221351;23;20393;-91
2023/01/04 23:57:18;;;;;;;14.20;11.38;;;;;;;;;;6220975;23;20094;-91
2023/01/04 23:59:48;;;;;;;10.85;9.68;;;;;;;;;;6222578;23;20086;-92
